createdAt,value
2023-01-27T00:04:37.909Z,4.28
2023-01-27T00:09:44.389Z,4.20
2023-01-27T00:14:48.472Z,5.50
2023-01-27T00:19:53.182Z,7.35
2023-01-27T00:24:58.549Z,5.65
2023-01-27T00:30:04.785Z,3.58
2023-01-27T00:35:10.147Z,2.72
2023-01-27T00:40:18.061Z,5.28
2023-01-27T00:45:39.401Z,4.00
2023-01-27T00:50:44.504Z,4.57
2023-01-27T00:55:50.239Z,4.32
2023-01-27T01:00:55.342Z,3.22
2023-01-27T01:06:02.361Z,2.90
2023-01-27T01:11:09.723Z,2.50
2023-01-27T01:16:16.071Z,2.50
2023-01-27T01:21:22.600Z,3.15
2023-01-27T01:26:30.341Z,2.70
2023-01-27T01:31:34.616Z,3.70
2023-01-27T01:36:39.051Z,3.67
2023-01-27T01:41:44.830Z,2.80
2023-01-27T01:46:49.954Z,4.07
2023-01-27T01:51:58.355Z,3.95
2023-01-27T01:57:07.492Z,3.80
2023-01-27T02:02:15.660Z,3.55
2023-01-27T02:07:26.757Z,3.45
2023-01-27T02:12:32.872Z,3.03
2023-01-27T02:17:37.186Z,2.42
2023-01-27T02:22:51.053Z,2.80
2023-01-27T02:27:58.800Z,2.72
2023-01-27T02:33:03.773Z,3.35
2023-01-27T02:38:10.883Z,2.42
2023-01-27T02:43:16.474Z,3.30
2023-01-27T02:48:20.788Z,4.15
2023-01-27T02:53:25.274Z,5.93
2023-01-27T02:58:31.151Z,7.07
2023-01-27T03:03:47.382Z,7.32
2023-01-27T03:08:57.232Z,4.57
2023-01-27T03:14:03.079Z,2.38
2023-01-27T03:19:07.519Z,4.00
2023-01-27T03:24:11.512Z,4.15
2023-01-27T03:29:34.733Z,2.97
2023-01-27T03:34:39.257Z,4.10
2023-01-27T03:40:10.338Z,3.85
2023-01-27T03:45:33.546Z,4.18
2023-01-27T03:50:43.353Z,3.78
2023-01-27T03:55:48.073Z,4.93
2023-01-27T04:00:56.428Z,4.93
2023-01-27T04:06:22.305Z,5.10
2023-01-27T04:11:49.568Z,4.97
2023-01-27T04:16:57.935Z,4.03
2023-01-27T04:22:02.693Z,4.80
2023-01-27T04:27:09.163Z,5.80
2023-01-27T04:32:15.319Z,5.70
2023-01-27T04:37:19.272Z,7.25
2023-01-27T04:42:23.270Z,7.30
2023-01-27T04:47:28.732Z,10.07
2023-01-27T04:52:32.711Z,10.40
2023-01-27T04:57:36.998Z,10.82
2023-01-27T05:02:42.637Z,11.15
2023-01-27T05:07:48.212Z,11.68
2023-01-27T05:12:52.450Z,10.98
2023-01-27T05:17:58.410Z,10.75
2023-01-27T05:23:16.701Z,9.88
2023-01-27T05:28:20.699Z,8.13
2023-01-27T05:33:26.332Z,7.82
2023-01-27T05:38:31.119Z,13.85
2023-01-27T05:43:38.792Z,9.27
2023-01-27T05:48:45.611Z,9.10
2023-01-27T05:53:50.453Z,5.60
2023-01-27T05:58:55.320Z,13.30
2023-01-27T06:04:01.896Z,8.55
2023-01-27T06:09:06.133Z,9.45
2023-01-27T06:14:10.341Z,9.77
2023-01-27T06:19:15.895Z,11.88
2023-01-27T06:24:20.004Z,10.15
2023-01-27T06:29:25.183Z,11.82
2023-01-27T06:34:31.041Z,16.45
2023-01-27T06:39:35.565Z,22.05
2023-01-27T06:44:39.562Z,14.82
2023-01-27T06:49:44.900Z,12.75
2023-01-27T06:54:48.921Z,21.75
2023-01-27T06:59:53.221Z,17.35
2023-01-27T07:05:01.473Z,16.88
2023-01-27T07:10:06.771Z,31.98
2023-01-27T07:15:11.961Z,25.33
2023-01-27T07:20:18.573Z,22.73
2023-01-27T07:25:23.494Z,24.85
2023-01-27T07:30:28.250Z,21.33
2023-01-27T07:35:34.375Z,14.55
2023-01-27T07:40:39.017Z,14.13
2023-01-27T07:45:48.912Z,16.08
2023-01-27T07:50:54.664Z,14.63
2023-01-27T07:56:00.753Z,12.43
2023-01-27T08:01:07.168Z,14.35
2023-01-27T08:06:14.609Z,12.63
2023-01-27T08:11:20.392Z,12.00
2023-01-27T08:16:25.313Z,13.23
2023-01-27T08:21:33.145Z,9.73
2023-01-27T08:26:37.193Z,9.60
2023-01-27T08:31:41.853Z,12.43
2023-01-27T08:36:47.532Z,12.23
2023-01-27T08:41:51.629Z,11.43
2023-01-27T08:46:55.742Z,11.30
2023-01-27T08:52:01.210Z,10.98
2023-01-27T08:57:05.507Z,10.00
2023-01-27T09:02:14.576Z,9.07
2023-01-27T09:07:20.489Z,5.93
2023-01-27T09:12:24.783Z,8.07
2023-01-27T09:17:29.641Z,9.27
2023-01-27T09:22:36.670Z,11.98
2023-01-27T09:27:42.684Z,11.52
2023-01-27T09:32:47.316Z,10.25
2023-01-27T09:37:56.800Z,10.55
2023-01-27T09:43:20.971Z,9.48
2023-01-27T09:48:41.619Z,7.03
2023-01-27T09:54:17.326Z,6.00
2023-01-27T09:59:35.110Z,7.60
2023-01-27T10:05:03.849Z,7.30
2023-01-27T10:10:27.511Z,6.53
2023-01-27T10:15:56.836Z,6.25
2023-01-27T10:21:10.751Z,7.90
2023-01-27T10:26:29.449Z,6.85
2023-01-27T10:31:38.438Z,12.63
2023-01-27T10:36:48.513Z,7.93
2023-01-27T10:42:07.491Z,9.85
2023-01-27T10:47:20.581Z,6.75
2023-01-27T10:52:29.621Z,4.88
2023-01-27T10:57:41.695Z,28.25
2023-01-27T11:02:56.095Z,20.38
2023-01-27T11:08:08.809Z,6.50
2023-01-27T11:13:17.475Z,4.57
2023-01-27T11:18:24.540Z,5.38
2023-01-27T11:23:31.509Z,5.45
2023-01-27T11:28:43.875Z,7.10
2023-01-27T11:34:03.854Z,10.50
2023-01-27T11:39:07.956Z,8.55
2023-01-27T11:44:21.601Z,11.43
2023-01-27T11:49:29.241Z,18.58
2023-01-27T11:54:38.786Z,7.25
2023-01-27T11:59:45.628Z,7.63
2023-01-27T12:04:56.576Z,5.80
2023-01-27T12:10:01.128Z,5.13
2023-01-27T12:15:15.809Z,5.63
2023-01-27T12:20:37.332Z,5.05
2023-01-27T12:25:47.086Z,5.75
2023-01-27T12:30:55.606Z,6.40
2023-01-27T12:36:02.217Z,6.45
2023-01-27T12:41:08.946Z,6.47
2023-01-27T12:46:22.630Z,7.50
2023-01-27T12:51:41.308Z,8.32
2023-01-27T12:56:45.584Z,7.43
2023-01-27T13:02:02.997Z,8.93
2023-01-27T13:07:15.682Z,6.75
2023-01-27T13:12:22.505Z,6.90
2023-01-27T13:17:37.796Z,7.90
2023-01-27T13:22:47.648Z,7.65
2023-01-27T13:27:56.037Z,11.27
2023-01-27T13:33:23.550Z,12.95
2023-01-27T13:38:39.565Z,6.93
2023-01-27T13:43:54.611Z,8.18
2023-01-27T13:49:05.001Z,10.32
2023-01-27T13:54:13.660Z,8.80
2023-01-27T13:59:37.012Z,6.90
2023-01-27T14:05:19.742Z,7.47
2023-01-27T14:10:32.998Z,16.60
2023-01-27T14:15:50.210Z,9.90
2023-01-27T14:21:09.509Z,9.93
2023-01-27T14:26:31.831Z,9.38
2023-01-27T14:36:56.931Z,10.10
2023-01-27T14:42:10.328Z,7.32
2023-01-27T14:47:24.899Z,6.50
2023-01-27T14:52:42.209Z,7.65
2023-01-27T14:57:56.971Z,6.43
2023-01-27T15:03:23.115Z,7.70
2023-01-27T15:08:39.937Z,10.73
2023-01-27T15:13:58.207Z,13.77
2023-01-27T15:19:52.631Z,14.00
2023-01-27T15:25:09.803Z,9.35
2023-01-27T15:30:24.064Z,9.30
2023-01-27T15:35:36.689Z,7.70
2023-01-27T15:41:19.264Z,8.82
2023-01-27T15:46:35.080Z,10.15
2023-01-27T15:51:40.074Z,16.42
2023-01-27T15:56:50.931Z,17.25
2023-01-27T16:02:29.258Z,9.80
2023-01-27T16:07:37.993Z,9.32
2023-01-27T16:12:48.005Z,6.00
2023-01-27T16:18:03.456Z,6.97
2023-01-27T16:23:14.779Z,6.85
2023-01-27T16:28:22.630Z,8.90
2023-01-27T16:33:32.951Z,14.60
2023-01-27T16:38:42.635Z,17.98
2023-01-27T16:43:52.465Z,15.73
2023-01-27T16:48:59.988Z,12.27
2023-01-27T16:54:19.726Z,20.98
2023-01-27T16:59:28.423Z,25.45
2023-01-27T17:04:34.159Z,33.22
2023-01-27T17:09:43.395Z,18.58
2023-01-27T17:14:48.560Z,11.82
2023-01-27T17:20:04.679Z,6.55
2023-01-27T17:25:17.406Z,8.30
2023-01-27T17:30:25.222Z,13.43
2023-01-27T17:35:34.573Z,9.25
2023-01-27T17:45:50.170Z,16.77
2023-01-27T17:50:55.530Z,19.80
2023-01-27T17:56:00.123Z,20.52
2023-01-27T18:01:04.546Z,21.67
2023-01-27T18:06:14.953Z,21.30
2023-01-27T18:11:31.100Z,37.50
2023-01-27T18:16:35.709Z,28.83
2023-01-27T18:21:41.633Z,28.05
2023-01-27T18:26:48.924Z,23.20
2023-01-27T18:31:56.196Z,18.27
2023-01-27T18:37:07.117Z,25.77
2023-01-27T18:42:15.532Z,28.80
2023-01-27T18:47:35.798Z,21.40
2023-01-27T18:52:42.196Z,9.57
2023-01-27T18:57:47.008Z,10.98
2023-01-27T19:02:54.187Z,9.73
2023-01-27T19:08:00.755Z,15.93
2023-01-27T19:13:06.125Z,9.35
2023-01-27T19:18:17.317Z,8.93
2023-01-27T19:23:26.748Z,9.82
2023-01-27T19:28:34.645Z,5.43
2023-01-27T19:33:43.167Z,4.93
2023-01-27T19:38:51.064Z,3.10
2023-01-27T19:43:57.183Z,1.88
2023-01-27T19:49:01.245Z,5.22
2023-01-27T19:54:13.118Z,1.95
2023-01-27T19:59:17.404Z,3.60
2023-01-27T20:04:24.879Z,4.43
2023-01-27T20:09:31.692Z,6.07
2023-01-27T20:14:37.149Z,5.30
2023-01-27T20:19:41.972Z,13.13
2023-01-27T20:24:47.602Z,14.57
2023-01-27T20:29:54.575Z,14.20
2023-01-27T20:34:59.549Z,17.35
2023-01-27T20:40:06.717Z,12.20
2023-01-27T20:45:13.482Z,9.90
2023-01-27T20:50:18.524Z,11.35
2023-01-27T20:55:24.301Z,8.50
2023-01-27T21:00:30.098Z,9.30
2023-01-27T21:05:34.585Z,7.68
2023-01-27T21:10:41.580Z,8.13
2023-01-27T21:15:48.539Z,6.05
2023-01-27T21:20:55.591Z,6.15
2023-01-27T21:26:05.161Z,6.53
2023-01-27T21:31:12.352Z,6.57
2023-01-27T21:36:19.621Z,6.13
2023-01-27T21:41:40.475Z,6.80
2023-01-27T21:46:45.285Z,8.05
2023-01-27T21:51:50.748Z,4.00
2023-01-27T21:57:01.749Z,3.55
2023-01-27T22:02:07.266Z,3.33
2023-01-27T22:07:14.638Z,5.38
2023-01-27T22:12:23.830Z,10.20
2023-01-27T22:17:28.538Z,9.52
2023-01-27T22:22:33.162Z,5.72
2023-01-27T22:27:41.646Z,5.45
2023-01-27T22:32:46.976Z,3.28
2023-01-27T22:37:53.582Z,3.42
2023-01-27T22:43:00.258Z,10.30
2023-01-27T22:48:04.362Z,4.00
2023-01-27T22:53:08.395Z,4.88
2023-01-27T22:58:13.886Z,6.10
2023-01-27T23:03:18.533Z,9.15
2023-01-27T23:08:24.234Z,3.47
2023-01-27T23:13:30.284Z,5.35
2023-01-27T23:18:35.121Z,7.82
2023-01-27T23:23:41.183Z,7.50
2023-01-27T23:28:46.536Z,7.00
2023-01-27T23:33:51.174Z,3.70
2023-01-27T23:38:56.071Z,5.45
2023-01-27T23:44:02.100Z,4.20
2023-01-27T23:49:06.132Z,7.93
2023-01-27T23:54:11.201Z,4.40
2023-01-27T23:59:17.139Z,3.75
